Time;durP1;ratioP1;P1;durP2;ratioP2;P2;SDS_P1;SDS_P2;PMS_P1;PMS_P2;Temp;Humidity;BMP_temperature;BMP_pressure;BME280_temperature;BME280_humidity;BME280_pressure;Samples;Min_cycle;Max_cycle;Signal;HPM_P1;HPM_P2
2023/10/28 00:01:26;;;;;;;15.52;4.70;;;;;;;9.41;100.00;99431.72;4999861;28;20033;-45
2023/10/28 00:03:51;;;;;;;12.50;5.10;;;;;;;9.42;100.00;99434.19;4999463;28;20127;-45
2023/10/28 00:06:17;;;;;;;12.07;4.40;;;;;;;9.43;100.00;99432.41;5002512;28;20026;-45
2023/10/28 00:08:43;;;;;;;13.73;4.90;;;;;;;9.44;100.00;99434.06;4996785;28;20038;-46
2023/10/28 00:11:08;;;;;;;12.48;4.57;;;;;;;9.45;100.00;99425.13;5009103;28;20074;-46
2023/10/28 00:13:33;;;;;;;8.73;4.28;;;;;;;9.48;100.00;99431.97;4999764;28;20071;-46
2023/10/28 00:15:59;;;;;;;13.40;4.15;;;;;;;9.51;100.00;99435.16;5001985;28;20061;-46
2023/10/28 00:18:24;;;;;;;14.63;4.50;;;;;;;9.51;100.00;99432.50;4996209;28;20057;-47
2023/10/28 00:20:49;;;;;;;13.57;4.50;;;;;;;9.54;100.00;99432.22;4998943;28;20076;-46
2023/10/28 00:23:15;;;;;;;15.98;4.45;;;;;;;9.57;100.00;99431.91;4997684;28;20084;-46
2023/10/28 00:25:43;;;;;;;16.83;4.40;;;;;;;9.59;100.00;99437.06;4999393;28;20026;-46
2023/10/28 00:28:09;;;;;;;11.20;4.50;;;;;;;9.60;100.00;99428.97;5000798;28;20379;-46
2023/10/28 00:30:38;;;;;;;13.90;4.55;;;;;;;9.58;100.00;99422.97;4997087;28;20022;-47
2023/10/28 00:33:03;;;;;;;17.58;4.78;;;;;;;9.61;100.00;99430.66;5000300;28;20032;-46
2023/10/28 00:35:29;;;;;;;12.55;4.10;;;;;;;9.60;100.00;99421.03;4998670;28;20030;-46
2023/10/28 00:37:54;;;;;;;14.05;4.80;;;;;;;9.61;100.00;99429.81;4998961;28;20030;-46
2023/10/28 00:40:20;;;;;;;13.02;4.18;;;;;;;9.62;100.00;99423.53;5001251;28;20030;-46
2023/10/28 00:42:45;;;;;;;8.57;3.85;;;;;;;9.62;100.00;99434.13;4997068;28;20362;-46
2023/10/28 00:45:11;;;;;;;12.55;3.75;;;;;;;9.62;100.00;99428.81;5002520;28;20022;-46
2023/10/28 00:47:45;;;;;;;10.38;3.72;;;;;;;9.63;100.00;99433.97;4998931;28;20079;-46
2023/10/28 00:50:12;;;;;;;13.65;3.80;;;;;;;9.64;100.00;99432.16;5003785;28;20038;-46
2023/10/28 00:52:44;;;;;;;12.15;3.80;;;;;;;9.64;100.00;99432.16;4996246;28;20080;-46
2023/10/28 00:55:11;;;;;;;15.85;4.43;;;;;;;9.64;100.00;99432.16;4998789;28;20026;-48
2023/10/28 00:57:38;;;;;;;8.75;3.65;;;;;;;9.63;100.00;99427.84;4999419;28;20023;-47
2023/10/28 01:00:06;;;;;;;11.25;3.58;;;;;;;9.64;100.00;99432.16;5002282;28;20034;-50
2023/10/28 01:02:34;;;;;;;11.32;3.50;;;;;;;9.65;100.00;99425.88;4996534;28;20034;-47
2023/10/28 01:04:59;;;;;;;9.07;3.08;;;;;;;9.65;100.00;99428.53;4996473;28;20087;-48
2023/10/28 01:07:25;;;;;;;9.63;3.40;;;;;;;9.66;100.00;99432.88;4999180;28;20027;-47
2023/10/28 01:09:50;;;;;;;9.00;2.92;;;;;;;9.66;100.00;99437.31;5001742;28;20511;-47
2023/10/28 01:12:16;;;;;;;8.65;2.88;;;;;;;9.67;100.00;99436.34;5013267;28;20069;-46
2023/10/28 01:14:41;;;;;;;9.15;2.70;;;;;;;9.66;100.00;99427.56;4997625;28;20026;-46
2023/10/28 01:17:08;;;;;;;8.98;3.10;;;;;;;9.68;100.00;99436.19;4996379;28;20023;-48
2023/10/28 01:19:34;;;;;;;8.88;3.10;;;;;;;9.67;100.00;99434.53;4997549;28;20026;-47
2023/10/28 01:22:00;;;;;;;8.23;2.80;;;;;;;9.69;100.00;99437.03;4997921;28;20121;-46
2023/10/28 01:24:25;;;;;;;8.07;3.10;;;;;;;9.69;100.00;99435.22;5000109;28;20110;-47
2023/10/28 01:26:50;;;;;;;9.30;2.75;;;;;;;9.71;100.00;99427.97;4997176;28;20054;-47
2023/10/28 01:29:16;;;;;;;11.55;3.28;;;;;;;9.71;100.00;99427.09;5000276;28;20030;-47
2023/10/28 01:31:41;;;;;;;6.63;2.53;;;;;;;9.71;100.00;99433.25;5000946;28;20414;-47
2023/10/28 01:34:06;;;;;;;9.98;2.75;;;;;;;9.71;100.00;99427.97;4998368;28;20071;-46
2023/10/28 01:36:31;;;;;;;8.75;2.63;;;;;;;9.72;100.00;99429.59;4998395;28;20400;-47
2023/10/28 01:38:57;;;;;;;9.45;2.70;;;;;;;9.73;100.00;99433.94;4996484;28;20025;-47
2023/10/28 01:41:22;;;;;;;6.65;2.53;;;;;;;9.73;100.00;99427.81;5004425;28;20030;-47
2023/10/28 01:43:47;;;;;;;10.30;3.20;;;;;;;9.75;100.00;99431.16;4995726;28;20019;-47
2023/10/28 01:46:13;;;;;;;8.40;2.80;;;;;;;9.74;100.00;99434.78;4994946;28;20507;-47
2023/10/28 01:48:38;;;;;;;8.80;2.55;;;;;;;9.74;100.00;99432.13;4998169;28;20083;-47
2023/10/28 01:51:04;;;;;;;5.57;2.47;;;;;;;9.73;100.00;99428.63;4999304;28;20506;-47
2023/10/28 01:53:30;;;;;;;3.60;2.35;;;;;;;9.74;100.00;99424.16;4997550;28;20030;-47
2023/10/28 01:55:57;;;;;;;6.85;2.70;;;;;;;9.73;100.00;99431.28;4998582;28;20167;-47
2023/10/28 01:58:23;;;;;;;7.05;2.65;;;;;;;9.75;100.00;99433.81;4996809;28;20034;-46
2023/10/28 02:00:48;;;;;;;6.78;2.38;;;;;;;9.73;100.00;99420.69;4996645;28;20019;-47
2023/10/28 02:03:13;;;;;;;6.55;2.33;;;;;;;9.72;100.00;99421.66;4997280;28;20042;-47
2023/10/28 02:05:38;;;;;;;4.68;2.00;;;;;;;9.74;100.00;99422.38;5005421;28;20034;-47
2023/10/28 02:08:04;;;;;;;5.15;2.15;;;;;;;9.73;100.00;99423.34;4996886;28;20018;-46
2023/10/28 02:10:29;;;;;;;4.72;1.92;;;;;;;9.73;100.00;99418.03;4997527;28;20034;-46
2023/10/28 02:12:54;;;;;;;4.40;2.15;;;;;;;9.74;100.00;99417.06;4997348;28;20030;-47
2023/10/28 02:15:20;;;;;;;6.82;2.30;;;;;;;9.74;100.00;99410.91;4997786;28;20061;-46
2023/10/28 02:17:46;;;;;;;4.90;2.05;;;;;;;9.71;100.00;99419.16;4995470;28;20026;-47
2023/10/28 02:20:13;;;;;;;7.03;2.15;;;;;;;9.71;100.00;99417.34;5012175;28;20027;-46
2023/10/28 02:22:39;;;;;;;4.15;2.15;;;;;;;9.70;100.00;99418.31;5000591;28;20498;-47
2023/10/28 02:25:06;;;;;;;6.47;2.30;;;;;;;9.69;100.00;99415.81;4997253;28;20109;-46
2023/10/28 02:27:33;;;;;;;12.02;2.45;;;;;;;9.71;100.00;99422.66;4995884;28;20030;-46
2023/10/28 02:29:58;;;;;;;3.38;2.00;;;;;;;9.72;100.00;99421.66;4999558;28;20401;-46
2023/10/28 02:32:23;;;;;;;5.43;2.13;;;;;;;9.71;100.00;99424.44;4998249;28;20030;-48
2023/10/28 02:34:48;;;;;;;4.72;2.00;;;;;;;9.70;100.00;99418.31;4994107;28;20107;-48
2023/10/28 02:37:14;;;;;;;7.72;2.28;;;;;;;9.69;100.00;99415.81;4997079;28;20503;-47
2023/10/28 02:39:39;;;;;;;3.05;2.03;;;;;;;9.69;100.00;99416.69;4996535;28;20381;-47
2023/10/28 02:42:05;;;;;;;6.60;2.40;;;;;;;9.70;100.00;99423.63;4995073;28;20041;-47
2023/10/28 02:44:30;;;;;;;4.95;2.10;;;;;;;9.71;100.00;99429.75;4995631;28;20033;-47
2023/10/28 02:46:56;;;;;;;4.88;2.10;;;;;;;9.67;100.00;99428.41;4994993;28;20069;-47
2023/10/28 02:49:21;;;;;;;6.07;2.00;;;;;;;9.67;100.00;99418.63;4994712;28;20047;-46
2023/10/28 02:51:46;;;;;;;4.40;2.40;;;;;;;9.65;100.00;99423.22;4998185;28;20022;-47
2023/10/28 02:54:13;;;;;;;2.35;2.00;;;;;;;9.64;100.00;99426.84;4994780;28;20026;-47
2023/10/28 02:56:38;;;;;;;9.15;2.60;;;;;;;9.63;100.00;99427.84;4999701;28;20387;-47
2023/10/28 02:59:07;;;;;;;5.38;2.30;;;;;;;9.62;100.00;99426.19;4997557;28;20105;-46
2023/10/28 03:01:36;;;;;;;5.90;2.58;;;;;;;9.61;100.00;99425.34;4995550;28;20079;-47
2023/10/28 03:04:02;;;;;;;4.28;2.20;;;;;;;9.60;100.00;99434.28;5000190;28;20471;-47
2023/10/28 03:06:28;;;;;;;6.40;2.72;;;;;;;9.59;100.00;99437.06;4997360;28;20022;-47
2023/10/28 03:08:54;;;;;;;4.38;2.40;;;;;;;9.61;100.00;99443.09;5000744;28;20041;-47
2023/10/28 03:11:19;;;;;;;7.97;3.40;;;;;;;9.60;100.00;99428.16;4999793;28;20069;-47
2023/10/28 03:13:45;;;;;;;5.13;3.38;;;;;;;9.62;100.00;99434.94;4996202;28;20917;-48
2023/10/28 03:16:10;;;;;;;5.20;3.00;;;;;;;9.64;100.00;99432.16;4997044;28;20050;-48
2023/10/28 03:18:35;;;;;;;4.15;3.10;;;;;;;9.66;100.00;99424.91;4999773;28;20475;-48
2023/10/28 03:21:00;;;;;;;5.38;3.25;;;;;;;9.67;100.00;99437.16;4999826;28;20321;-47
2023/10/28 03:23:26;;;;;;;6.18;2.78;;;;;;;9.70;100.00;99431.59;5003261;28;20105;-47
2023/10/28 03:25:52;;;;;;;7.00;2.78;;;;;;;9.72;100.00;99434.09;5019024;28;20541;-46
2023/10/28 03:28:17;;;;;;;3.92;1.98;;;;;;;9.68;100.00;99436.19;5002311;28;20036;-46
2023/10/28 03:30:42;;;;;;;6.97;2.40;;;;;;;9.67;100.00;99434.53;5000686;28;20053;-46
2023/10/28 03:33:08;;;;;;;6.22;2.45;;;;;;;9.67;100.00;99426.56;5004085;28;20380;-46
2023/10/28 03:35:33;;;;;;;6.38;2.33;;;;;;;9.65;100.00;99435.66;4997009;28;20030;-46
2023/10/28 03:37:58;;;;;;;4.30;2.20;;;;;;;9.66;100.00;99429.38;5001074;28;20112;-46
2023/10/28 03:40:24;;;;;;;7.28;2.50;;;;;;;9.64;100.00;99429.50;4996030;28;20030;-46
2023/10/28 03:42:49;;;;;;;5.72;2.40;;;;;;;9.62;100.00;99428.81;5003041;28;20029;-46
2023/10/28 03:45:16;;;;;;;3.30;1.92;;;;;;;9.62;100.00;99434.13;5001303;28;20096;-47
2023/10/28 03:47:41;;;;;;;4.20;2.33;;;;;;;9.61;100.00;99427.19;5000786;28;20092;-46
2023/10/28 03:50:06;;;;;;;4.60;2.22;;;;;;;9.60;100.00;99423.66;4997957;28;20034;-46
2023/10/28 03:52:32;;;;;;;4.80;2.40;;;;;;;9.59;100.00;99429.97;5000810;28;20463;-47
2023/10/28 03:54:59;;;;;;;5.82;2.45;;;;;;;9.59;100.00;99422.03;4996430;28;20129;-46
2023/10/28 03:57:24;;;;;;;6.10;2.33;;;;;;;9.60;100.00;99422.84;5003110;28;20116;-46
2023/10/28 03:59:49;;;;;;;4.88;2.20;;;;;;;9.59;100.00;99427.31;4998647;28;20034;-46
2023/10/28 04:02:16;;;;;;;3.58;2.40;;;;;;;9.61;100.00;99427.19;4999504;28;20091;-46
2023/10/28 04:04:41;;;;;;;5.85;2.10;;;;;;;9.61;100.00;99425.34;4996535;28;20084;-46
2023/10/28 04:07:06;;;;;;;3.88;2.30;;;;;;;9.62;100.00;99426.19;4997823;28;20481;-47
2023/10/28 04:09:31;;;;;;;3.60;2.20;;;;;;;9.63;100.00;99423.38;4998402;28;20030;-47
2023/10/28 04:12:00;;;;;;;6.82;2.60;;;;;;;9.62;100.00;99418.22;5000498;28;20468;-46
2023/10/28 04:14:25;;;;;;;5.72;2.00;;;;;;;9.60;100.00;99422.84;5009648;28;20072;-47
2023/10/28 04:16:50;;;;;;;3.92;2.10;;;;;;;9.59;100.00;99416.72;5000595;28;20022;-47
2023/10/28 04:19:16;;;;;;;4.25;2.20;;;;;;;9.59;100.00;99415.84;4998355;28;20388;-47
2023/10/28 04:21:41;;;;;;;4.63;2.03;;;;;;;9.57;100.00;99417.81;4998631;28;20042;-46
2023/10/28 04:24:07;;;;;;;5.43;2.22;;;;;;;9.58;100.00;99416.88;4997580;28;20033;-46
2023/10/28 04:26:32;;;;;;;3.45;2.30;;;;;;;9.56;100.00;99411.69;5000556;28;20049;-46
2023/10/28 04:29:00;;;;;;;4.40;2.38;;;;;;;9.56;100.00;99400.25;4999568;28;20542;-47
2023/10/28 04:31:27;;;;;;;8.10;2.20;;;;;;;9.55;100.00;99404.72;4999332;28;20069;-47
2023/10/28 04:33:52;;;;;;;7.97;2.40;;;;;;;9.53;100.00;99405.88;5007206;28;20062;-47
2023/10/28 04:36:17;;;;;;;4.30;2.15;;;;;;;9.56;100.00;99409.06;5002736;28;20523;-47
2023/10/28 04:38:43;;;;;;;5.00;2.35;;;;;;;9.54;100.00;99405.72;5001847;28;20022;-46
2023/10/28 04:41:08;;;;;;;2.58;1.70;;;;;;;9.54;100.00;99400.41;4996711;28;20557;-47
2023/10/28 04:43:34;;;;;;;6.93;2.35;;;;;;;9.54;100.00;99404.88;5001648;28;20033;-49
2023/10/28 04:45:59;;;;;;;3.92;2.22;;;;;;;9.55;100.00;99406.53;4997896;28;20446;-47
2023/10/28 04:48:27;;;;;;;7.55;2.50;;;;;;;9.53;100.00;99403.22;5001241;28;20342;-50
2023/10/28 04:50:52;;;;;;;4.20;2.25;;;;;;;9.54;100.00;99399.56;5000663;28;20129;-47
2023/10/28 04:53:17;;;;;;;4.72;2.10;;;;;;;9.52;100.00;99393.59;4999943;28;20109;-48
2023/10/28 04:55:43;;;;;;;6.55;2.30;;;;;;;9.51;100.00;99398.06;5001827;28;20537;-47
2023/10/28 04:58:10;;;;;;;3.20;2.30;;;;;;;9.50;100.00;99406.16;4998672;28;20088;-47
2023/10/28 05:00:35;;;;;;;4.30;1.85;;;;;;;9.50;100.00;99388.41;4998936;28;20018;-47
2023/10/28 05:03:01;;;;;;;5.47;2.20;;;;;;;9.50;100.00;99383.13;4995062;28;20496;-48
2023/10/28 05:05:26;;;;;;;4.20;2.10;;;;;;;9.50;100.00;99384.94;4997920;28;20040;-47
2023/10/28 05:07:51;;;;;;;8.10;2.30;;;;;;;9.51;100.00;99391.91;4994492;28;20027;-47
2023/10/28 05:10:17;;;;;;;5.28;2.35;;;;;;;9.51;100.00;99381.31;4997289;28;20536;-47
2023/10/28 05:12:42;;;;;;;5.15;2.03;;;;;;;9.49;100.00;99380.63;4997394;28;20030;-46
2023/10/28 05:15:08;;;;;;;3.85;2.00;;;;;;;9.50;100.00;99385.78;5000446;28;20033;-49
2023/10/28 05:17:35;;;;;;;7.25;2.53;;;;;;;9.49;100.00;99385.91;4996804;28;20159;-49
2023/10/28 05:20:02;;;;;;;4.40;1.98;;;;;;;9.47;100.00;99380.75;5001418;28;20018;-48
2023/10/28 05:22:27;;;;;;;4.45;1.85;;;;;;;9.50;100.00;99387.59;5005123;28;20038;-48
2023/10/28 05:24:52;;;;;;;7.05;2.33;;;;;;;9.50;100.00;99387.59;4998346;28;20496;-47
2023/10/28 05:27:18;;;;;;;5.28;2.13;;;;;;;9.48;100.00;99386.91;4999664;28;20032;-48
2023/10/28 05:29:43;;;;;;;5.60;2.33;;;;;;;9.47;100.00;99388.72;5022512;28;20037;-47
2023/10/28 05:32:08;;;;;;;3.42;2.00;;;;;;;9.47;100.00;99385.25;4999437;28;20469;-47
2023/10/28 05:34:34;;;;;;;6.07;2.08;;;;;;;9.47;100.00;99396.66;4996488;28;20031;-48
2023/10/28 05:36:59;;;;;;;7.07;2.50;;;;;;;9.47;100.00;99385.25;4998564;28;20033;-49
2023/10/28 05:39:24;;;;;;;3.63;2.28;;;;;;;9.45;100.00;99383.56;5000209;28;20022;-48
2023/10/28 05:41:50;;;;;;;4.78;1.90;;;;;;;9.45;100.00;99391.50;5000098;28;20112;-48
2023/10/28 05:44:16;;;;;;;6.60;2.10;;;;;;;9.45;100.00;99383.56;4996383;28;20030;-48
2023/10/28 05:46:41;;;;;;;4.38;1.80;;;;;;;9.45;100.00;99385.38;4995243;28;20412;-49
2023/10/28 05:49:07;;;;;;;4.00;2.05;;;;;;;9.43;100.00;99390.81;5000931;28;20018;-48
2023/10/28 05:51:36;;;;;;;8.50;2.15;;;;;;;9.43;100.00;99398.78;4997442;28;20084;-47
2023/10/28 05:54:05;;;;;;;7.28;2.42;;;;;;;9.43;100.00;99404.06;5001702;28;20027;-47
2023/10/28 05:56:30;;;;;;;4.38;2.10;;;;;;;9.44;100.00;99394.31;4996551;28;20114;-48
2023/10/28 05:58:58;;;;;;;7.95;2.17;;;;;;;9.43;100.00;99403.25;4994515;28;20114;-47
2023/10/28 06:01:26;;;;;;;5.57;2.38;;;;;;;9.42;100.00;99406.88;4994352;28;20404;-47
2023/10/28 06:03:52;;;;;;;4.78;2.05;;;;;;;9.41;100.00;99414.00;4996199;28;20076;-47
2023/10/28 06:06:17;;;;;;;5.45;1.80;;;;;;;9.41;100.00;99408.69;4995981;28;20057;-47
2023/10/28 06:08:42;;;;;;;3.92;1.90;;;;;;;9.43;100.00;99406.72;4997529;28;20542;-47
2023/10/28 06:11:09;;;;;;;6.05;2.28;;;;;;;9.44;100.00;99407.56;4994059;28;20026;-49
2023/10/28 06:13:38;;;;;;;3.55;1.90;;;;;;;9.46;100.00;99410.91;5003031;28;20108;-47
2023/10/28 06:16:03;;;;;;;6.97;2.38;;;;;;;9.52;100.00;99412.13;5002138;28;20045;-48
2023/10/28 06:18:29;;;;;;;6.28;1.73;;;;;;;9.52;100.00;99412.13;5000260;28;20477;-47
2023/10/28 06:20:55;;;;;;;5.45;2.17;;;;;;;9.51;100.00;99413.09;4996793;28;20438;-47
2023/10/28 06:23:20;;;;;;;3.40;2.08;;;;;;;9.50;100.00;99420.22;4998534;28;20042;-48
2023/10/28 06:25:45;;;;;;;7.63;2.30;;;;;;;9.49;100.00;99423.03;5000478;28;20408;-47
2023/10/28 06:28:11;;;;;;;6.97;2.13;;;;;;;9.48;100.00;99424.03;4993786;28;20042;-47
2023/10/28 06:30:37;;;;;;;4.57;2.10;;;;;;;9.45;100.00;99423.31;4994136;28;20038;-47
2023/10/28 06:33:02;;;;;;;7.75;2.40;;;;;;;9.45;100.00;99420.66;4992503;28;20113;-47
2023/10/28 06:35:30;;;;;;;4.60;1.95;;;;;;;9.43;100.00;99425.28;4995777;28;20657;-48
2023/10/28 06:37:55;;;;;;;5.00;2.80;;;;;;;9.42;100.00;99417.47;4993799;28;20062;-48
2023/10/28 06:40:21;;;;;;;6.53;2.20;;;;;;;9.41;100.00;99415.81;4996908;28;20075;-48
2023/10/28 06:42:46;;;;;;;7.82;2.10;;;;;;;9.42;100.00;99420.13;4992619;28;20164;-48
2023/10/28 06:45:11;;;;;;;5.75;2.03;;;;;;;9.42;100.00;99420.94;4996114;28;20041;-47
2023/10/28 06:47:36;;;;;;;5.75;1.95;;;;;;;9.41;100.00;99413.16;5000527;28;20030;-47
2023/10/28 06:50:06;;;;;;;7.05;2.47;;;;;;;9.42;100.00;99417.47;5000567;28;20023;-48
2023/10/28 06:52:32;;;;;;;7.35;2.17;;;;;;;9.41;100.00;99411.34;4994262;28;20026;-48
2023/10/28 06:54:59;;;;;;;5.50;2.30;;;;;;;9.41;100.00;99416.66;4996137;28;20105;-47
2023/10/28 06:57:25;;;;;;;5.40;1.92;;;;;;;9.42;100.00;99418.28;5000760;28;20037;-48
2023/10/28 06:59:50;;;;;;;8.40;2.38;;;;;;;9.41;100.00;99419.28;4996490;28;20018;-47
2023/10/28 07:02:15;;;;;;;7.75;2.08;;;;;;;9.43;100.00;99424.44;4994634;28;20034;-47
2023/10/28 07:04:41;;;;;;;10.40;2.30;;;;;;;9.41;100.00;99421.94;4994442;28;20050;-48
2023/10/28 07:07:08;;;;;;;8.80;2.13;;;;;;;9.42;100.00;99420.94;4999478;28;20022;-49
2023/10/28 07:09:33;;;;;;;8.32;2.40;;;;;;;9.43;100.00;99427.94;4995139;28;20023;-48
2023/10/28 07:12:00;;;;;;;11.32;2.45;;;;;;;9.45;100.00;99427.78;4995635;28;20037;-48
2023/10/28 07:14:26;;;;;;;7.97;2.40;;;;;;;9.46;100.00;99426.81;4998276;28;20030;-48
2023/10/28 07:16:51;;;;;;;6.13;2.20;;;;;;;9.48;100.00;99421.38;4993400;28;20101;-49
2023/10/28 07:19:16;;;;;;;4.68;2.15;;;;;;;9.50;100.00;99430.00;4999509;28;20030;-47
2023/10/28 07:21:42;;;;;;;7.00;2.22;;;;;;;9.50;100.00;99428.19;4995822;28;20070;-48
2023/10/28 07:24:11;;;;;;;5.28;1.95;;;;;;;9.52;100.00;99430.69;4995177;28;20397;-49
2023/10/28 07:26:36;;;;;;;;;;;;;;;9.58;100.00;99432.75;4993394;28;20034;-48
2023/10/28 07:29:01;;;;;;;6.13;2.13;;;;;;;9.56;100.00;99437.34;4991621;28;20297;-48
2023/10/28 07:31:27;;;;;;;5.90;2.00;;;;;;;9.57;100.00;99439.84;4998470;28;20150;-48
2023/10/28 07:33:52;;;;;;;7.72;2.38;;;;;;;9.59;100.00;99440.56;4999916;28;20018;-48
2023/10/28 07:36:17;;;;;;;8.98;2.50;;;;;;;9.61;100.00;99440.44;4993610;28;20364;-48
2023/10/28 07:38:43;;;;;;;7.63;2.22;;;;;;;9.65;100.00;99444.44;4994743;28;20049;-48
2023/10/28 07:41:08;;;;;;;6.75;2.35;;;;;;;9.68;100.00;99445.97;4999914;28;20067;-48
2023/10/28 07:43:33;;;;;;;11.82;2.53;;;;;;;9.70;100.00;99444.84;4993959;28;20117;-47
2023/10/28 07:45:58;;;;;;;4.38;2.15;;;;;;;9.75;100.00;99447.06;4990497;28;20064;-48
2023/10/28 07:48:26;;;;;;;8.30;2.40;;;;;;;9.77;100.00;99448.56;4998737;28;20422;-49
2023/10/28 07:50:51;;;;;;;7.70;2.30;;;;;;;9.79;100.00;99443.97;4997854;28;20648;-48
2023/10/28 07:53:17;;;;;;;7.55;2.08;;;;;;;9.82;100.00;99451.63;5000494;28;20036;-48
2023/10/28 07:55:42;;;;;;;8.77;2.15;;;;;;;9.86;100.00;99460.13;5001871;28;20029;-48
2023/10/28 07:58:07;;;;;;;9.13;2.70;;;;;;;9.91;100.00;99457.00;4998754;28;20393;-48
2023/10/28 08:00:36;;;;;;;11.38;2.33;;;;;;;9.94;100.00;99464.69;4996951;28;20034;-48
2023/10/28 08:03:03;;;;;;;5.47;2.55;;;;;;;9.99;100.00;99473.88;5000804;28;20055;-47
2023/10/28 08:05:29;;;;;;;7.85;2.50;;;;;;;10.04;100.00;99472.59;4996817;28;20389;-47
2023/10/28 08:07:54;;;;;;;5.97;2.20;;;;;;;10.08;100.00;99472.16;4994533;28;20030;-47
2023/10/28 08:10:22;;;;;;;9.88;2.70;;;;;;;10.13;100.00;99477.84;5001413;28;20030;-48
2023/10/28 08:12:54;;;;;;;11.18;2.63;;;;;;;10.17;100.00;99481.88;4999351;28;20031;-48
2023/10/28 08:15:24;;;;;;;11.02;2.85;;;;;;;10.19;100.00;99479.91;4994014;28;20027;-48
2023/10/28 08:17:50;;;;;;;7.70;2.28;;;;;;;10.26;100.00;99477.50;4998322;28;20030;-48
2023/10/28 08:20:17;;;;;;;9.15;2.60;;;;;;;10.31;100.00;99475.22;5007724;28;20026;-48
2023/10/28 08:22:44;;;;;;;9.57;2.42;;;;;;;10.35;100.00;99483.75;4971139;28;20030;-48
2023/10/28 08:25:10;;;;;;;7.97;2.53;;;;;;;10.40;100.00;99483.31;4996488;28;20474;-48
2023/10/28 08:27:36;;;;;;;11.63;2.30;;;;;;;10.45;100.00;99483.69;4999064;28;20486;-49
2023/10/28 08:30:03;;;;;;;8.38;2.10;;;;;;;10.47;100.00;99484.38;4997700;28;20054;-47
2023/10/28 08:32:30;;;;;;;9.35;2.60;;;;;;;10.49;100.00;99490.34;5005521;28;20037;-47
2023/10/28 08:34:56;;;;;;;8.60;2.28;;;;;;;10.52;100.00;99482.09;5001436;28;20022;-48
2023/10/28 08:37:23;;;;;;;10.23;3.00;;;;;;;10.55;100.00;99489.78;5005173;28;20113;-48
2023/10/28 08:39:48;;;;;;;9.95;2.50;;;;;;;10.59;100.00;99493.81;5000103;28;20018;-47
2023/10/28 08:42:14;;;;;;;8.40;2.50;;;;;;;10.64;100.00;99485.38;5002748;28;20045;-48
2023/10/28 08:44:41;;;;;;;13.45;3.25;;;;;;;10.67;100.00;99493.84;4995568;28;20041;-48
2023/10/28 08:47:07;;;;;;;10.05;2.72;;;;;;;10.73;100.00;99497.75;4993342;28;20076;-47
2023/10/28 08:49:35;;;;;;;7.82;2.47;;;;;;;10.75;100.00;99493.09;4999782;28;20480;-47
2023/10/28 08:52:02;;;;;;;7.15;2.20;;;;;;;10.82;100.00;99499.47;4998026;28;20106;-49
2023/10/28 08:54:28;;;;;;;9.30;2.33;;;;;;;10.85;100.00;99508.97;4995938;28;20113;-48
2023/10/28 08:56:56;;;;;;;9.90;2.42;;;;;;;10.86;100.00;99498.19;4997431;28;20140;-47
2023/10/28 08:59:21;;;;;;;7.78;2.75;;;;;;;10.91;100.00;99511.03;4998866;28;20030;-48
2023/10/28 09:01:47;;;;;;;11.35;2.67;;;;;;;10.94;100.00;99510.69;4995333;28;20045;-47
2023/10/28 09:04:14;;;;;;;6.63;2.58;;;;;;;10.99;100.00;99508.44;4996449;28;20053;-47
2023/10/28 09:06:40;;;;;;;8.82;2.35;;;;;;;11.02;100.00;99505.47;5000348;28;20425;-47
2023/10/28 09:09:13;;;;;;;7.95;2.58;;;;;;;11.05;100.00;99505.16;5005639;28;20128;-48
2023/10/28 09:11:39;;;;;;;8.55;2.10;;;;;;;11.12;100.00;99513.34;5009591;28;20437;-47
2023/10/28 09:14:08;;;;;;;7.45;2.30;;;;;;;11.19;100.00;99517.06;5002813;28;20419;-48
2023/10/28 09:16:34;;;;;;;8.32;2.28;;;;;;;11.27;100.00;99519.81;4999219;28;20109;-48
2023/10/28 09:19:00;;;;;;;7.18;2.30;;;;;;;11.38;100.00;99512.56;4995873;28;20038;-47
2023/10/28 09:21:26;;;;;;;6.97;2.08;;;;;;;11.48;100.00;99518.59;5003144;28;20034;-47
2023/10/28 09:23:51;;;;;;;8.60;2.10;;;;;;;11.57;100.00;99515.00;5004386;28;20033;-48
2023/10/28 09:26:18;;;;;;;10.60;2.58;;;;;;;11.67;100.00;99514.88;4993770;28;20481;-48
2023/10/28 09:28:44;;;;;;;7.68;2.30;;;;;;;11.77;100.00;99517.44;4995287;28;20042;-47
2023/10/28 09:31:09;;;;;;;12.40;2.63;;;;;;;11.86;100.00;99524.47;4995253;28;20029;-48
2023/10/28 09:33:36;;;;;;;7.10;2.30;;;;;;;11.95;100.00;99523.56;4997113;28;20034;-47
2023/10/28 09:36:02;;;;;;;5.80;1.95;;;;;;;11.97;100.00;99521.59;4997892;28;20366;-47
2023/10/28 09:38:28;;;;;;;8.13;2.60;;;;;;;11.99;100.00;99519.59;4997304;28;20099;-47
2023/10/28 09:40:54;;;;;;;7.65;2.55;;;;;;;12.00;100.00;99523.91;4994726;28;20476;-47
2023/10/28 09:43:20;;;;;;;7.68;2.33;;;;;;;12.01;100.00;99519.44;5003968;28;20117;-47
2023/10/28 09:45:51;;;;;;;9.63;2.47;;;;;;;12.00;100.00;99523.06;4997163;28;20153;-47
2023/10/28 09:48:17;;;;;;;8.60;2.15;;;;;;;12.03;100.00;99520.94;4997466;28;20065;-47
2023/10/28 09:50:53;;;;;;;8.35;2.63;;;;;;;12.07;100.00;99520.63;4994395;28;20480;-47
2023/10/28 09:53:27;;;;;;;7.13;2.10;;;;;;;12.08;100.00;99522.28;4995932;28;20116;-47
2023/10/28 09:55:55;;;;;;;9.32;1.98;;;;;;;12.09;100.00;99515.97;4994438;28;20022;-46
2023/10/28 09:58:25;;;;;;;7.13;2.13;;;;;;;12.08;100.00;99519.63;4995193;28;20033;-47
2023/10/28 10:01:05;;;;;;;8.15;1.95;;;;;;;12.11;100.00;99524.63;4996387;28;20074;-47
2023/10/28 10:04:00;;;;;;;8.77;2.30;;;;;;;12.15;100.00;99524.13;4996220;28;20461;-47
2023/10/28 10:06:25;;;;;;;8.52;2.05;;;;;;;12.18;100.00;99533.63;4995457;28;20038;-47
2023/10/28 10:08:52;;;;;;;7.30;2.10;;;;;;;12.25;100.00;99524.00;4992852;28;20042;-47
2023/10/28 10:11:22;;;;;;;6.15;1.80;;;;;;;12.31;100.00;99530.53;4995524;28;20062;-47
2023/10/28 10:13:47;;;;;;;8.40;2.40;;;;;;;12.36;100.00;99529.03;4999043;28;20034;-47
2023/10/28 10:16:26;;;;;;;8.23;2.17;;;;;;;12.42;100.00;99535.53;4990729;28;20540;-47
2023/10/28 10:18:55;;;;;;;7.50;2.42;;;;;;;12.47;100.00;99541.22;4999421;28;20030;-47
2023/10/28 10:21:22;;;;;;;5.53;2.20;;;;;;;12.51;100.00;99544.41;5002571;28;20033;-48
2023/10/28 10:23:51;;;;;;;6.60;1.88;;;;;;;12.55;100.00;99546.56;5000254;28;20038;-47
2023/10/28 10:26:27;;;;;;;6.50;2.33;;;;;;;12.58;100.00;99550.75;5016409;28;20041;-46
2023/10/28 10:28:55;;;;;;;7.00;1.77;;;;;;;12.60;100.00;99546.09;4997642;28;20120;-47
2023/10/28 10:31:27;;;;;;;5.93;1.77;;;;;;;12.63;100.00;99548.44;4994656;28;20132;-47
2023/10/28 10:34:08;;;;;;;5.07;1.67;;;;;;;12.69;100.00;99542.47;4992616;28;20199;-47
2023/10/28 10:36:40;;;;;;;4.47;1.70;;;;;;;12.72;100.00;99541.28;4996345;28;20034;-48
2023/10/28 10:39:16;;;;;;;6.63;1.95;;;;;;;12.73;100.00;99543.78;4995134;28;20026;-48
2023/10/28 10:41:55;;;;;;;7.95;2.10;;;;;;;12.77;100.00;99546.94;4992298;28;20029;-47
2023/10/28 10:44:25;;;;;;;9.73;2.60;;;;;;;12.76;100.00;99540.78;4991885;28;20038;-47
2023/10/28 10:46:59;;;;;;;8.95;2.10;;;;;;;12.75;100.00;99546.28;4994851;28;20042;-47
2023/10/28 10:49:24;;;;;;;9.55;2.13;;;;;;;12.72;100.00;99544.81;4993779;28;20530;-47
2023/10/28 10:51:51;;;;;;;11.80;2.58;;;;;;;12.74;100.00;99541.97;5015499;28;20030;-46
2023/10/28 10:54:17;;;;;;;10.05;2.53;;;;;;;12.76;100.00;99542.63;4998304;28;20034;-47
2023/10/28 10:56:44;;;;;;;9.57;2.70;;;;;;;12.80;100.00;99532.47;5000388;28;20472;-47
2023/10/28 10:59:09;;;;;;;8.70;2.17;;;;;;;12.84;100.00;99529.34;4992217;28;20385;-46
2023/10/28 11:01:35;;;;;;;8.50;2.22;;;;;;;12.92;100.00;99549.81;4989187;28;20029;-47
2023/10/28 11:04:03;;;;;;;8.40;2.47;;;;;;;13.01;100.00;99537.34;4991815;28;20052;-47
2023/10/28 11:06:28;;;;;;;9.65;2.70;;;;;;;13.09;100.00;99537.31;4992611;28;20066;-47
2023/10/28 11:08:54;;;;;;;7.03;2.15;;;;;;;13.11;100.00;99528.19;4992444;28;20053;-48
2023/10/28 11:11:19;;;;;;;11.40;2.40;;;;;;;13.20;100.00;99533.50;4994062;28;20030;-47
2023/10/28 11:13:45;;;;;;;9.25;2.08;;;;;;;13.28;100.00;99523.66;4992943;28;20029;-47
2023/10/28 11:16:21;;;;;;;5.68;2.20;;;;;;;13.39;100.00;99517.22;4993931;28;20030;-48
2023/10/28 11:18:47;;;;;;;12.57;2.67;;;;;;;13.47;99.68;99519.88;4997708;28;20022;-48
2023/10/28 11:21:12;;;;;;;10.52;3.03;;;;;;;13.53;99.30;99522.84;4995389;28;20392;-47
2023/10/28 11:23:38;;;;;;;10.60;2.80;;;;;;;13.58;99.18;99529.34;4997083;28;20029;-48
2023/10/28 11:26:04;;;;;;;9.35;2.58;;;;;;;13.62;96.72;99536.00;4988816;28;20121;-47